createdAt,value
2019-02-27T00:01:16.771Z,5.80
2019-02-27T00:03:59.852Z,6.17
2019-02-27T00:06:40.216Z,5.60
2019-02-27T00:09:32.712Z,6.03
2019-02-27T00:12:21.235Z,5.87
2019-02-27T00:18:01.254Z,6.13
2019-02-27T00:20:50.419Z,6.07
2019-02-27T00:23:39.913Z,6.20
2019-02-27T00:26:29.392Z,6.17
2019-02-27T00:29:18.678Z,5.23
2019-02-27T00:32:08.293Z,6.03
2019-02-27T00:34:38.483Z,6.30
2019-02-27T00:37:08.698Z,6.50
2019-02-27T00:39:58.212Z,6.97
2019-02-27T00:42:47.792Z,6.87
2019-02-27T00:45:39.629Z,6.83
2019-02-27T00:48:09.310Z,6.07
2019-02-27T00:50:58.857Z,7.30
2019-02-27T00:53:29.126Z,6.07
2019-02-27T00:56:18.356Z,7.57
2019-02-27T00:59:07.820Z,6.63
2019-02-27T01:01:57.005Z,6.73
2019-02-27T01:04:46.486Z,6.03
2019-02-27T01:07:35.680Z,7.40
2019-02-27T01:10:17.478Z,6.87
2019-02-27T01:12:47.642Z,7.47
2019-02-27T01:15:36.842Z,7.13
2019-02-27T01:18:07.104Z,7.07
2019-02-27T01:20:37.401Z,7.43
2019-02-27T01:23:26.855Z,7.17
2019-02-27T01:26:16.095Z,7.23
2019-02-27T01:29:05.517Z,7.13
2019-02-27T01:31:54.964Z,6.63
2019-02-27T01:34:26.900Z,6.53
2019-02-27T01:37:16.579Z,6.90
2019-02-27T01:40:06.710Z,7.20
2019-02-27T01:42:36.910Z,7.53
2019-02-27T01:45:26.418Z,7.77
2019-02-27T01:48:15.937Z,7.43
2019-02-27T01:50:46.109Z,7.83
2019-02-27T01:53:16.248Z,7.53
2019-02-27T01:56:05.745Z,7.67
2019-02-27T01:58:54.944Z,7.63
2019-02-27T02:01:29.821Z,7.17
2019-02-27T02:04:19.991Z,7.07
2019-02-27T02:07:07.648Z,8.17
2019-02-27T02:09:39.252Z,7.10
2019-02-27T02:12:30.364Z,6.87
2019-02-27T02:15:31.050Z,7.10
2019-02-27T02:18:39.211Z,8.10
2019-02-27T02:21:34.319Z,7.20
2019-02-27T02:24:42.962Z,6.97
2019-02-27T02:27:51.075Z,7.67
2019-02-27T02:31:04.939Z,7.67
2019-02-27T02:34:06.359Z,7.83
2019-02-27T02:37:14.503Z,7.50
2019-02-27T02:40:31.270Z,7.50
2019-02-27T02:43:41.632Z,7.70
2019-02-27T02:46:48.484Z,7.03
2019-02-27T02:49:56.631Z,7.67
2019-02-27T02:53:04.785Z,7.50
2019-02-27T02:56:12.917Z,7.70
2019-02-27T02:59:24.389Z,7.17
2019-02-27T03:02:14.861Z,7.30
2019-02-27T03:05:16.650Z,8.03
2019-02-27T03:08:08.915Z,7.60
2019-02-27T03:11:19.068Z,7.37
2019-02-27T03:14:26.866Z,7.63
2019-02-27T03:17:35.009Z,7.03
2019-02-27T03:20:43.193Z,7.47
2019-02-27T03:23:52.462Z,6.80
2019-02-27T03:27:00.793Z,7.30
2019-02-27T03:30:09.034Z,7.13
2019-02-27T03:33:22.708Z,7.43
2019-02-27T03:36:20.848Z,7.43
2019-02-27T03:39:16.866Z,7.53
2019-02-27T03:42:25.066Z,8.27
2019-02-27T03:45:30.988Z,8.40
2019-02-27T03:48:27.763Z,9.30
2019-02-27T03:51:35.436Z,9.17
2019-02-27T03:54:30.835Z,9.97
2019-02-27T03:57:42.192Z,8.40
2019-02-27T04:04:00.793Z,9.13
2019-02-27T04:09:59.351Z,9.17
2019-02-27T04:12:51.653Z,9.50
2019-02-27T04:15:20.692Z,8.70
2019-02-27T04:17:52.221Z,8.80
2019-02-27T04:20:40.370Z,10.10
2019-02-27T04:23:29.536Z,11.10
2019-02-27T04:26:19.477Z,9.80
2019-02-27T04:28:49.638Z,9.17
2019-02-27T04:31:20.058Z,9.63
2019-02-27T04:33:50.456Z,9.03
2019-02-27T04:36:20.604Z,9.40
2019-02-27T04:39:10.269Z,10.53
2019-02-27T04:41:40.447Z,9.77
2019-02-27T04:44:10.690Z,9.40
2019-02-27T04:46:40.880Z,9.43
2019-02-27T04:49:30.389Z,8.90
2019-02-27T04:52:21.966Z,9.50
2019-02-27T04:55:13.068Z,10.10
2019-02-27T05:01:10.550Z,9.03
2019-02-27T05:04:01.508Z,8.73
2019-02-27T05:06:32.854Z,8.97
2019-02-27T05:09:03.073Z,9.50
2019-02-27T05:11:34.640Z,9.43
2019-02-27T05:14:05.062Z,9.13
2019-02-27T05:16:36.128Z,8.90
2019-02-27T05:19:06.697Z,9.60
2019-02-27T05:21:52.241Z,9.27
2019-02-27T05:24:30.240Z,9.87
2019-02-27T05:27:19.615Z,9.50
2019-02-27T05:30:12.064Z,10.20
2019-02-27T05:33:02.129Z,9.77
2019-02-27T05:35:50.904Z,10.27
2019-02-27T05:38:21.047Z,10.83
2019-02-27T05:41:10.246Z,9.33
2019-02-27T05:43:59.749Z,10.47
2019-02-27T05:46:48.941Z,10.03
2019-02-27T05:49:38.473Z,8.27
2019-02-27T05:52:27.936Z,9.17
2019-02-27T05:55:17.388Z,9.77
2019-02-27T05:58:25.478Z,10.57
2019-02-27T06:01:14.905Z,10.00
2019-02-27T06:03:45.120Z,10.67
2019-02-27T06:06:15.242Z,9.73
2019-02-27T06:08:45.651Z,10.90
2019-02-27T06:11:35.075Z,11.63
2019-02-27T06:14:05.276Z,10.80
2019-02-27T06:16:37.624Z,11.00
2019-02-27T06:19:26.423Z,12.20
2019-02-27T06:21:56.935Z,12.80
2019-02-27T06:24:27.255Z,11.13
2019-02-27T06:26:57.729Z,11.03
2019-02-27T06:29:28.374Z,11.40
2019-02-27T06:32:17.581Z,11.97
2019-02-27T06:34:47.844Z,11.83
2019-02-27T06:37:37.315Z,12.47
2019-02-27T06:40:08.118Z,11.67
2019-02-27T06:42:57.299Z,12.77
2019-02-27T06:45:27.435Z,10.97
2019-02-27T06:47:57.605Z,11.77
2019-02-27T06:50:28.033Z,11.87
2019-02-27T06:52:58.212Z,11.90
2019-02-27T06:55:28.837Z,12.40
2019-02-27T06:57:58.961Z,12.47
2019-02-27T07:00:29.425Z,13.07
2019-02-27T07:02:59.554Z,12.03
2019-02-27T07:05:29.708Z,11.70
2019-02-27T07:08:02.189Z,11.53
2019-02-27T07:10:32.257Z,11.90
2019-02-27T07:13:02.444Z,12.37
2019-02-27T07:15:32.653Z,12.37
2019-02-27T07:18:03.476Z,12.60
2019-02-27T07:20:55.652Z,11.23
2019-02-27T07:23:25.912Z,13.67
2019-02-27T07:26:15.821Z,10.77
2019-02-27T07:28:46.736Z,12.53
2019-02-27T07:31:38.594Z,11.63
2019-02-27T07:34:27.822Z,12.40
2019-02-27T07:36:57.946Z,12.67
2019-02-27T07:39:47.152Z,12.27
2019-02-27T07:42:17.316Z,12.07
2019-02-27T07:44:47.412Z,12.23
2019-02-27T07:47:17.882Z,13.00
2019-02-27T07:50:08.829Z,12.07
2019-02-27T07:52:39.106Z,13.03
2019-02-27T07:55:28.550Z,11.67
2019-02-27T07:57:59.306Z,11.60
2019-02-27T08:00:49.855Z,11.40
2019-02-27T08:03:39.500Z,11.40
2019-02-27T08:06:28.688Z,11.03
2019-02-27T08:08:58.849Z,11.93
2019-02-27T08:11:29.006Z,11.27
2019-02-27T08:14:00.756Z,10.53
2019-02-27T08:16:31.354Z,10.93
2019-02-27T08:19:01.690Z,11.83
2019-02-27T08:21:50.903Z,11.40
2019-02-27T08:24:22.722Z,11.37
2019-02-27T08:26:53.295Z,11.10
2019-02-27T08:29:23.729Z,11.80
2019-02-27T08:31:53.978Z,11.33
2019-02-27T08:34:43.080Z,10.73
2019-02-27T08:37:13.451Z,11.40
2019-02-27T08:39:44.752Z,10.80
2019-02-27T08:42:15.779Z,10.70
2019-02-27T08:45:05.158Z,10.33
2019-02-27T08:47:55.791Z,10.37
2019-02-27T08:50:45.580Z,9.07
2019-02-27T08:53:15.768Z,9.57
2019-02-27T08:56:04.964Z,8.60
2019-02-27T08:58:35.190Z,10.13
2019-02-27T09:01:24.565Z,8.53
2019-02-27T09:04:14.007Z,9.67
2019-02-27T09:06:44.488Z,9.03
2019-02-27T09:09:14.988Z,8.77
2019-02-27T09:11:46.629Z,8.80
2019-02-27T09:14:36.060Z,8.93
2019-02-27T09:17:06.205Z,9.53
2019-02-27T09:19:36.408Z,8.83
2019-02-27T09:22:25.661Z,9.03
2019-02-27T09:25:14.933Z,8.73
2019-02-27T09:27:45.363Z,8.90
2019-02-27T09:30:16.336Z,9.03
2019-02-27T09:32:46.804Z,8.30
2019-02-27T09:35:17.035Z,8.63
2019-02-27T09:37:48.299Z,9.93
2019-02-27T09:40:39.576Z,8.97
2019-02-27T09:43:09.895Z,9.73
2019-02-27T09:45:59.845Z,10.07
2019-02-27T09:48:31.135Z,10.57
2019-02-27T09:51:02.471Z,10.70
2019-02-27T09:53:34.003Z,10.50
2019-02-27T09:56:05.375Z,10.63
2019-02-27T09:58:36.080Z,11.10
2019-02-27T10:01:25.292Z,10.90
2019-02-27T10:04:14.705Z,10.43
2019-02-27T10:07:04.267Z,10.23
2019-02-27T10:09:53.503Z,11.27
2019-02-27T10:12:42.734Z,10.60
2019-02-27T10:15:13.752Z,10.77
2019-02-27T10:18:03.247Z,11.13
2019-02-27T10:20:45.367Z,10.93
2019-02-27T10:23:15.687Z,10.73
2019-02-27T10:25:46.175Z,11.67
2019-02-27T10:28:38.860Z,10.83
2019-02-27T10:31:07.324Z,10.43
2019-02-27T10:33:56.536Z,11.20
2019-02-27T10:36:47.632Z,11.20
2019-02-27T10:39:17.970Z,10.70
2019-02-27T10:42:07.894Z,11.87
2019-02-27T10:44:57.073Z,11.03
2019-02-27T10:47:46.333Z,11.67
2019-02-27T10:50:36.212Z,11.20
2019-02-27T10:53:27.361Z,10.73
2019-02-27T10:56:16.755Z,10.30
2019-02-27T10:59:06.116Z,10.37
2019-02-27T11:01:55.355Z,9.93
2019-02-27T11:04:44.874Z,10.40
2019-02-27T11:07:34.060Z,9.93
2019-02-27T11:10:23.422Z,9.53
2019-02-27T11:13:12.828Z,9.77
2019-02-27T11:16:02.054Z,9.60
2019-02-27T11:18:32.232Z,9.97
2019-02-27T11:21:11.978Z,9.40
2019-02-27T11:24:01.185Z,10.00
2019-02-27T11:26:33.360Z,9.83
2019-02-27T11:29:23.741Z,10.60
2019-02-27T11:32:13.175Z,9.20
2019-02-27T11:35:02.412Z,9.30
2019-02-27T11:37:51.842Z,9.93
2019-02-27T11:40:42.609Z,10.13
2019-02-27T11:43:13.218Z,9.67
2019-02-27T11:46:02.441Z,9.83
2019-02-27T11:48:51.606Z,9.53
2019-02-27T11:51:21.754Z,9.60
2019-02-27T11:53:51.998Z,10.13
2019-02-27T11:56:22.216Z,8.93
2019-02-27T11:59:30.403Z,8.90
2019-02-27T12:02:19.656Z,9.93
2019-02-27T12:05:09.481Z,9.00
2019-02-27T12:07:58.691Z,7.53
2019-02-27T12:11:02.154Z,8.67
2019-02-27T12:13:39.063Z,9.17
2019-02-27T12:16:28.293Z,8.10
2019-02-27T12:19:17.523Z,7.27
2019-02-27T12:22:00.297Z,7.43
2019-02-27T12:24:42.539Z,8.43
2019-02-27T12:27:45.182Z,8.00
2019-02-27T12:30:08.862Z,6.60
2019-02-27T12:32:50.371Z,7.80
2019-02-27T12:35:22.526Z,7.27
2019-02-27T12:37:52.687Z,7.67
2019-02-27T12:40:41.834Z,7.07
2019-02-27T12:43:17.233Z,6.23
2019-02-27T12:45:43.984Z,7.37
2019-02-27T12:48:33.172Z,6.03
2019-02-27T12:51:22.354Z,5.87
2019-02-27T12:54:11.555Z,6.33
2019-02-27T12:57:00.749Z,5.80
2019-02-27T12:59:49.959Z,6.10
2019-02-27T13:02:39.195Z,5.83
2019-02-27T13:05:28.699Z,5.37
2019-02-27T13:10:53.958Z,5.20
2019-02-27T13:13:43.301Z,5.20
2019-02-27T13:16:32.434Z,5.00
2019-02-27T13:19:06.268Z,4.53
2019-02-27T13:21:55.153Z,4.73
2019-02-27T13:24:47.063Z,4.27
2019-02-27T13:27:16.994Z,3.80
2019-02-27T13:30:09.196Z,4.40
2019-02-27T13:33:01.957Z,3.17
2019-02-27T13:35:32.678Z,3.70
2019-02-27T13:38:03.397Z,3.40
2019-02-27T13:40:52.587Z,2.90
2019-02-27T13:43:24.475Z,2.93
2019-02-27T13:45:54.869Z,2.87
2019-02-27T13:48:28.257Z,3.13
2019-02-27T13:50:59.250Z,2.90
2019-02-27T13:53:30.393Z,3.10
2019-02-27T13:56:00.666Z,3.07
2019-02-27T13:58:35.531Z,3.47
2019-02-27T14:01:02.892Z,3.30
2019-02-27T14:03:33.039Z,3.37
2019-02-27T14:06:06.324Z,3.30
2019-02-27T14:08:54.335Z,3.07
2019-02-27T14:11:25.112Z,3.20
2019-02-27T14:13:56.492Z,4.00
2019-02-27T14:16:45.766Z,4.57
2019-02-27T14:19:36.476Z,3.73
2019-02-27T14:22:25.965Z,3.30
2019-02-27T14:25:21.179Z,3.30
2019-02-27T14:28:10.335Z,3.77
2019-02-27T14:30:59.548Z,3.60
2019-02-27T14:33:41.278Z,3.37
2019-02-27T14:36:11.481Z,3.57
2019-02-27T14:38:41.706Z,3.50
2019-02-27T14:41:14.360Z,3.47
2019-02-27T14:44:02.815Z,3.13
2019-02-27T14:46:33.056Z,3.07
2019-02-27T14:49:23.852Z,2.83
2019-02-27T14:51:54.109Z,3.07
2019-02-27T14:54:43.426Z,3.33
2019-02-27T14:57:16.121Z,3.80
2019-02-27T14:59:45.459Z,2.93
2019-02-27T15:02:16.270Z,3.67
2019-02-27T15:04:46.486Z,3.13
2019-02-27T15:07:16.635Z,3.97
2019-02-27T15:10:07.207Z,3.67
2019-02-27T15:12:53.900Z,3.90
2019-02-27T15:15:23.716Z,3.50
2019-02-27T15:17:55.165Z,3.63
2019-02-27T15:20:44.371Z,3.40
2019-02-27T15:25:41.936Z,4.03
2019-02-27T15:28:11.758Z,3.57
2019-02-27T15:30:46.376Z,4.07
2019-02-27T15:33:32.975Z,4.30
2019-02-27T15:36:03.226Z,3.73
2019-02-27T15:38:33.433Z,4.37
2019-02-27T15:41:05.604Z,4.80
2019-02-27T15:43:35.974Z,4.70
2019-02-27T15:46:25.821Z,4.20
2019-02-27T15:49:15.868Z,4.93
2019-02-27T15:51:46.935Z,4.33
2019-02-27T15:54:36.112Z,4.23
2019-02-27T15:57:08.016Z,4.80
2019-02-27T15:59:41.612Z,4.83
2019-02-27T16:02:29.347Z,4.53
2019-02-27T16:05:18.607Z,4.93
2019-02-27T16:08:11.029Z,4.43
2019-02-27T16:11:00.330Z,5.07
2019-02-27T16:13:32.019Z,4.60
2019-02-27T16:16:23.214Z,4.90
2019-02-27T16:19:12.669Z,4.57
2019-02-27T16:21:43.238Z,4.87
2019-02-27T16:24:24.395Z,4.60
2019-02-27T16:27:06.021Z,4.13
2019-02-27T16:29:47.448Z,4.23
2019-02-27T16:32:29.368Z,4.10
2019-02-27T16:35:11.567Z,4.20
2019-02-27T16:37:41.858Z,3.63
2019-02-27T16:40:31.061Z,4.00
2019-02-27T16:43:20.660Z,3.80
2019-02-27T16:46:10.486Z,4.10
2019-02-27T16:48:59.735Z,4.93
2019-02-27T16:51:31.214Z,4.17
2019-02-27T16:54:21.195Z,4.57
2019-02-27T16:57:10.660Z,4.13
2019-02-27T16:59:59.851Z,3.83
2019-02-27T17:02:49.961Z,5.00
2019-02-27T17:05:20.641Z,4.30
2019-02-27T17:08:00.653Z,4.60
2019-02-27T17:10:51.709Z,4.03
2019-02-27T17:13:22.815Z,4.57
2019-02-27T17:15:54.527Z,4.13
2019-02-27T17:18:29.301Z,4.50
2019-02-27T17:21:00.604Z,4.43
2019-02-27T17:26:24.383Z,4.27
2019-02-27T17:29:15.402Z,4.17
2019-02-27T17:32:04.770Z,3.90
2019-02-27T17:34:54.087Z,4.00
2019-02-27T17:37:45.331Z,4.47
2019-02-27T17:40:37.862Z,3.97
2019-02-27T17:43:09.287Z,4.23
2019-02-27T17:46:01.176Z,3.80
2019-02-27T17:48:51.839Z,4.67
2019-02-27T17:52:11.360Z,5.73
2019-02-27T17:54:21.017Z,4.30
2019-02-27T17:57:12.363Z,4.73
2019-02-27T18:00:01.880Z,4.87
2019-02-27T18:02:53.165Z,4.97
2019-02-27T18:05:43.400Z,5.73
2019-02-27T18:08:17.092Z,5.03
2019-02-27T18:10:48.957Z,5.60
2019-02-27T18:13:38.653Z,5.23
2019-02-27T18:16:27.974Z,4.90
2019-02-27T18:18:58.855Z,5.50
2019-02-27T18:21:33.363Z,5.73
2019-02-27T18:24:01.018Z,5.83
2019-02-27T18:26:42.771Z,5.23
2019-02-27T18:29:13.133Z,5.47
2019-02-27T18:31:43.776Z,5.80
2019-02-27T18:34:33.137Z,5.43
2019-02-27T18:37:04.854Z,5.77
2019-02-27T18:39:36.522Z,5.47
2019-02-27T18:42:07.422Z,5.03
2019-02-27T18:44:41.504Z,4.93
2019-02-27T18:47:10.806Z,5.23
2019-02-27T18:49:43.169Z,5.43
2019-02-27T18:52:21.191Z,5.00
2019-02-27T18:54:46.054Z,4.37
2019-02-27T18:57:35.391Z,5.03
2019-02-27T19:00:07.824Z,4.67
2019-02-27T19:02:38.026Z,4.97
2019-02-27T19:05:09.766Z,4.70
2019-02-27T19:07:59.381Z,4.73
2019-02-27T19:10:29.944Z,5.33
2019-02-27T19:13:01.076Z,4.67
2019-02-27T19:15:51.587Z,4.80
2019-02-27T19:18:41.203Z,4.67
2019-02-27T19:21:24.500Z,4.73
2019-02-27T19:24:06.215Z,5.50
2019-02-27T19:26:46.073Z,4.93
2019-02-27T19:29:35.783Z,5.80
2019-02-27T19:32:25.357Z,4.80
2019-02-27T19:35:15.144Z,4.43
2019-02-27T19:38:04.699Z,5.10
2019-02-27T19:40:56.761Z,5.03
2019-02-27T19:43:27.247Z,5.40
2019-02-27T19:46:00.588Z,5.93
2019-02-27T19:48:31.846Z,5.60
2019-02-27T19:51:22.247Z,5.00
2019-02-27T19:54:18.418Z,5.47
2019-02-27T19:57:26.035Z,5.13
2019-02-27T20:00:17.656Z,6.40
2019-02-27T20:03:07.179Z,5.43
2019-02-27T20:05:56.353Z,5.53
2019-02-27T20:08:45.714Z,6.00
2019-02-27T20:11:40.042Z,6.40
2019-02-27T20:14:07.411Z,5.57
2019-02-27T20:16:37.849Z,6.00
2019-02-27T20:22:01.198Z,5.90
2019-02-27T20:24:32.431Z,5.20
2019-02-27T20:27:03.862Z,5.83
2019-02-27T20:29:39.464Z,6.10
2019-02-27T20:32:19.675Z,5.43
2019-02-27T20:34:50.131Z,5.50
2019-02-27T20:37:40.212Z,4.40
2019-02-27T20:40:14.870Z,4.90
2019-02-27T20:42:49.837Z,4.63
2019-02-27T20:45:42.793Z,5.37
2019-02-27T20:48:12.749Z,5.80
2019-02-27T20:50:44.747Z,5.50
2019-02-27T20:53:20.928Z,5.33
2019-02-27T20:55:49.351Z,5.20
2019-02-27T20:58:22.017Z,5.67
2019-02-27T21:03:47.955Z,5.87
2019-02-27T21:06:18.948Z,6.00
2019-02-27T21:08:49.165Z,5.40
2019-02-27T21:11:19.738Z,6.27
2019-02-27T21:13:51.164Z,5.03
2019-02-27T21:16:21.634Z,5.27
2019-02-27T21:18:53.022Z,5.13
2019-02-27T21:21:43.507Z,5.73
2019-02-27T21:24:33.578Z,5.73
2019-02-27T21:27:03.938Z,5.97
2019-02-27T21:29:36.115Z,5.53
2019-02-27T21:32:25.543Z,6.07
2019-02-27T21:34:56.128Z,5.70
2019-02-27T21:37:45.929Z,5.63
2019-02-27T21:40:36.139Z,6.30
2019-02-27T21:43:26.746Z,5.30
2019-02-27T21:46:16.215Z,5.57
2019-02-27T21:49:05.736Z,5.93
2019-02-27T21:51:38.392Z,5.67
2019-02-27T21:54:09.125Z,6.53
2019-02-27T21:56:58.950Z,6.93
2019-02-27T21:59:31.239Z,6.30
2019-02-27T22:02:20.423Z,6.03
2019-02-27T22:05:09.880Z,5.77
2019-02-27T22:07:40.273Z,7.33
2019-02-27T22:10:29.881Z,7.00
2019-02-27T22:13:00.278Z,6.30
2019-02-27T22:15:55.816Z,6.40
2019-02-27T22:18:23.388Z,6.13
2019-02-27T22:20:53.646Z,6.43
2019-02-27T22:23:24.347Z,5.87
2019-02-27T22:25:54.512Z,6.33
2019-02-27T22:28:24.660Z,5.40
2019-02-27T22:30:54.800Z,5.63
2019-02-27T22:33:36.474Z,5.83
2019-02-27T22:36:12.343Z,5.60
2019-02-27T22:39:00.187Z,5.57
2019-02-27T22:41:30.969Z,5.97
2019-02-27T22:44:20.285Z,5.33
2019-02-27T22:47:09.756Z,5.27
2019-02-27T22:49:58.995Z,5.60
2019-02-27T22:52:29.136Z,5.33
2019-02-27T22:55:18.344Z,6.07
2019-02-27T22:57:48.514Z,5.87
2019-02-27T23:00:59.098Z,5.87
2019-02-27T23:03:50.058Z,4.93
2019-02-27T23:06:20.237Z,5.23
2019-02-27T23:09:10.983Z,5.10
2019-02-27T23:12:00.190Z,5.60
2019-02-27T23:14:50.207Z,4.63
2019-02-27T23:17:21.601Z,4.90
2019-02-27T23:20:11.169Z,4.97
2019-02-27T23:23:02.741Z,4.90
2019-02-27T23:25:32.462Z,4.83
2019-02-27T23:28:21.623Z,4.87
2019-02-27T23:30:52.131Z,4.77
2019-02-27T23:33:24.603Z,4.67
2019-02-27T23:35:54.224Z,4.93
2019-02-27T23:38:43.433Z,4.67
2019-02-27T23:41:13.596Z,4.53
2019-02-27T23:43:43.811Z,4.70
2019-02-27T23:46:33.254Z,4.10
2019-02-27T23:49:06.542Z,4.37
2019-02-27T23:51:35.852Z,4.40
2019-02-27T23:54:05.982Z,4.80
2019-02-27T23:56:55.251Z,5.13
2019-02-27T23:59:25.495Z,4.80
